Terminal Aerodrome Forecast
Issued by NWS Northern Indiana

Home | Current Version | Previous Version | Text Only | Print | Product List | Glossary On
Versions: 1 2 3 4 5 6 7 8 9 10 11 12 13 14 15 16
000
FTUS43 KIWX 221500 AAA
TAFFWA
TAF AMD
KFWA 221505Z 2215/2312 07010KT 5SM BR BKN045 BKN100
     FM221800 11008KT 6SM BR OVC040
     FM222200 10010KT 5SM -SHRA BR OVC025
     FM230100 10012KT 4SM -SHRA OVC015
     FM230500 11014KT 2SM -RA OVC007=

USA.gov is the U.S. government's official web portal to all federal, state and local government web resources and services.